Time;durP1;ratioP1;P1;durP2;ratioP2;P2;SDS_P1;SDS_P2;PMS_P1;PMS_P2;Temp;Humidity;BMP_temperature;BMP_pressure;BME280_temperature;BME280_humidity;BME280_pressure;Samples;Min_cycle;Max_cycle;Signal;HPM_P1;HPM_P2
2022/10/08 00:01:25;;;;;;;7.90;5.57;;;;;;;12.29;100.00;98817.00;4108248;28;22385;-50
2022/10/08 00:03:29;;;;;;;4.72;4.32;;;;;;;12.20;100.00;98816.63;4123837;28;20229;-50
2022/10/08 00:05:31;;;;;;;4.85;4.40;;;;;;;12.18;100.00;98821.50;4122421;28;20305;-50
2022/10/08 00:07:33;;;;;;;4.80;4.45;;;;;;;12.19;100.00;98823.19;4120255;28;20269;-50
2022/10/08 00:09:34;;;;;;;8.95;4.85;;;;;;;12.21;100.00;98826.50;4123261;28;20277;-50
2022/10/08 00:11:38;;;;;;;4.95;4.50;;;;;;;12.17;100.00;98821.78;4107994;28;20688;-50
2022/10/08 00:13:41;;;;;;;10.30;4.55;;;;;;;12.16;100.00;98826.44;4108156;28;20232;-50
2022/10/08 00:15:42;;;;;;;7.00;4.55;;;;;;;12.19;100.00;98825.94;4125200;28;20303;-50
2022/10/08 00:17:44;;;;;;;6.00;4.68;;;;;;;12.14;100.00;98823.13;4109459;28;20225;-50
2022/10/08 00:19:46;;;;;;;5.35;3.80;;;;;;;12.15;100.00;98830.25;4106896;28;20290;-50
2022/10/08 00:21:52;;;;;;;4.88;3.58;;;;;;;12.11;100.00;98822.81;4105864;28;20777;-50
2022/10/08 00:23:53;;;;;;;4.03;3.67;;;;;;;12.12;100.00;98838.97;4106726;28;20226;-51
2022/10/08 00:25:55;;;;;;;4.15;3.63;;;;;;;12.12;100.00;98830.75;4122583;28;20226;-50
2022/10/08 00:27:57;;;;;;;5.45;3.72;;;;;;;12.06;100.00;98834.53;4122403;28;20289;-50
2022/10/08 00:29:58;;;;;;;5.75;3.85;;;;;;;12.05;100.00;98824.63;4107447;28;20301;-50
2022/10/08 00:32:01;;;;;;;4.93;4.03;;;;;;;12.02;100.00;98819.66;4121860;28;20229;-50
2022/10/08 00:34:11;;;;;;;9.98;4.60;;;;;;;12.02;100.00;98830.63;4121046;28;20258;-49
2022/10/08 00:36:13;;;;;;;4.53;4.13;;;;;;;11.99;100.00;98833.88;4107879;28;20207;-50
2022/10/08 00:38:15;;;;;;;4.93;3.92;;;;;;;12.00;100.00;98827.31;4123433;28;20301;-50
2022/10/08 00:40:16;;;;;;;4.07;3.72;;;;;;;12.02;100.00;98829.78;4124384;28;20724;-50
2022/10/08 00:42:20;;;;;;;5.13;4.63;;;;;;;12.02;100.00;98833.38;4106208;28;20585;-50
2022/10/08 00:44:56;;;;;;;4.20;3.85;;;;;;;11.93;100.00;98837.63;4120422;28;20233;-50
2022/10/08 00:46:57;;;;;;;3.75;3.42;;;;;;;11.97;100.00;98843.44;4098064;28;20293;-50
2022/10/08 00:49:10;;;;;;;4.35;3.95;;;;;;;11.91;100.00;98845.25;4123931;28;21316;-50
2022/10/08 00:51:12;;;;;;;8.73;5.05;;;;;;;11.91;100.00;98845.25;4122554;28;20257;-50
2022/10/08 00:53:14;;;;;;;12.35;5.45;;;;;;;11.95;100.00;98840.94;4104066;28;20237;-49
2022/10/08 00:55:18;;;;;;;5.50;4.43;;;;;;;11.95;100.00;98835.44;4108001;28;20307;-51
2022/10/08 00:57:20;;;;;;;5.43;4.88;;;;;;;11.94;100.00;98842.03;4104605;28;20252;-50
2022/10/08 00:59:22;;;;;;;5.40;4.90;;;;;;;11.98;100.00;98845.91;4118146;28;20300;-49
2022/10/08 01:01:24;;;;;;;5.75;5.13;;;;;;;11.72;100.00;98835.59;4117686;28;20344;-50
2022/10/08 01:03:27;;;;;;;4.78;4.35;;;;;;;11.71;100.00;98839.44;4116352;28;20269;-51
2022/10/08 01:06:13;;;;;;;5.10;4.65;;;;;;;11.69;100.00;98836.13;4120577;28;20212;-50
2022/10/08 01:08:23;;;;;;;5.43;4.93;;;;;;;11.74;100.00;98827.16;4058130;29;20240;-51
2022/10/08 01:10:42;;;;;;;8.82;5.25;;;;;;;11.80;100.00;98840.69;4055620;29;20219;-50
2022/10/08 01:13:02;;;;;;;6.00;4.13;;;;;;;11.82;100.00;98834.94;4069692;28;21225;-49
2022/10/08 01:15:10;;;;;;;7.25;4.07;;;;;;;11.91;100.00;98828.78;4129719;28;20285;-51
2022/10/08 01:17:15;;;;;;;6.00;3.83;;;;;;;11.79;100.00;98819.84;4108858;28;20202;-51
2022/10/08 01:19:30;;;;;;;5.18;4.40;;;;;;;11.86;100.00;98834.22;4121055;28;21581;-50
2022/10/08 01:21:40;;;;;;;4.30;3.90;;;;;;;11.87;100.00;98837.78;4120218;28;20222;-49
2022/10/08 01:24:03;;;;;;;4.80;4.40;;;;;;;11.90;100.00;98834.56;4121444;28;20317;-49
2022/10/08 01:26:21;;;;;;;4.40;4.05;;;;;;;11.89;100.00;98841.94;4104814;28;20603;-50
2022/10/08 01:28:41;;;;;;;5.53;3.60;;;;;;;11.87;100.00;98835.03;4121629;28;20222;-51
2022/10/08 01:31:14;;;;;;;5.57;4.50;;;;;;;11.88;100.00;98829.31;4107186;28;20302;-50
2022/10/08 01:33:47;;;;;;;4.35;3.75;;;;;;;11.81;100.00;98834.13;4117566;28;20230;-50
2022/10/08 01:35:53;;;;;;;5.22;4.20;;;;;;;11.84;100.00;98836.34;4065785;28;20668;-51
2022/10/08 01:37:57;;;;;;;7.55;3.78;;;;;;;11.89;100.00;98836.44;4124084;28;20243;-50
2022/10/08 01:40:02;;;;;;;4.50;3.85;;;;;;;11.90;100.00;98831.81;4118653;28;20241;-50
2022/10/08 01:42:06;;;;;;;4.47;4.07;;;;;;;11.91;100.00;98828.78;4104493;28;20298;-49
2022/10/08 01:44:13;;;;;;;4.18;3.88;;;;;;;11.90;100.00;98827.13;4121869;28;20236;-50
2022/10/08 01:46:21;;;;;;;6.93;4.00;;;;;;;11.91;100.00;98834.28;4105257;28;20246;-50
2022/10/08 01:48:27;;;;;;;7.70;5.25;;;;;;;11.94;100.00;98839.28;4117934;28;20653;-50
2022/10/08 01:50:33;;;;;;;4.63;4.22;;;;;;;11.96;100.00;98826.13;4122013;28;20942;-49
2022/10/08 01:52:48;;;;;;;4.75;4.45;;;;;;;11.91;100.00;98838.94;4092777;28;20665;-50
2022/10/08 01:54:54;;;;;;;5.35;4.85;;;;;;;11.93;100.00;98834.88;4119786;28;20234;-51
2022/10/08 01:56:57;;;;;;;5.50;5.03;;;;;;;11.88;100.00;98818.34;4119440;28;20241;-50
2022/10/08 01:59:18;;;;;;;6.45;5.38;;;;;;;11.85;100.00;98821.56;4103127;28;20211;-49
2022/10/08 02:01:34;;;;;;;5.07;4.65;;;;;;;11.73;100.00;98820.84;4119278;28;20597;-50
2022/10/08 02:03:35;;;;;;;6.72;4.63;;;;;;;11.75;100.00;98824.16;4119822;28;20259;-51
2022/10/08 02:05:39;;;;;;;7.97;4.53;;;;;;;11.74;100.00;98819.75;4118263;28;20580;-50
2022/10/08 02:07:42;;;;;;;5.72;5.22;;;;;;;11.69;100.00;98819.69;4118893;28;20678;-50
2022/10/08 02:09:47;;;;;;;6.68;4.50;;;;;;;11.74;100.00;98825.25;4111481;28;20218;-51
2022/10/08 02:11:48;;;;;;;5.18;4.75;;;;;;;11.71;100.00;98823.00;4125324;28;20212;-50
2022/10/08 02:13:50;;;;;;;12.40;6.05;;;;;;;11.72;100.00;98832.06;4123735;28;20230;-50
2022/10/08 02:15:59;;;;;;;9.38;4.75;;;;;;;11.66;100.00;98830.31;4123764;28;20301;-50
2022/10/08 02:18:10;;;;;;;4.55;4.00;;;;;;;11.63;100.00;98828.91;4109430;28;20636;-50
2022/10/08 02:20:21;;;;;;;4.72;4.13;;;;;;;11.63;100.00;98828.91;4109124;28;20230;-50
2022/10/08 02:22:30;;;;;;;5.07;4.43;;;;;;;11.58;100.00;98834.28;4104948;28;20213;-50
2022/10/08 02:25:04;;;;;;;5.55;4.63;;;;;;;11.59;100.00;98838.72;4121907;28;20225;-51
2022/10/08 02:27:08;;;;;;;5.65;4.03;;;;;;;11.66;100.00;98842.13;4111845;28;20205;-49
2022/10/08 02:29:15;;;;;;;4.75;4.45;;;;;;;11.72;100.00;98835.59;4123451;28;20725;-49
2022/10/08 02:31:22;;;;;;;6.63;4.82;;;;;;;11.77;100.00;98838.44;4123425;28;20297;-50
2022/10/08 02:33:50;;;;;;;5.00;4.50;;;;;;;11.75;100.00;98840.63;4123824;28;20233;-50
2022/10/08 02:35:54;;;;;;;6.38;4.40;;;;;;;11.78;100.00;98842.03;4123011;28;20260;-49
2022/10/08 02:38:05;;;;;;;4.03;3.63;;;;;;;11.78;100.00;98839.28;4121177;28;20206;-51
2022/10/08 02:40:10;;;;;;;5.85;4.18;;;;;;;11.80;100.00;98837.13;4123989;28;20301;-50
2022/10/08 02:42:17;;;;;;;4.50;4.10;;;;;;;11.78;100.00;98837.34;4092042;28;20226;-50
2022/10/08 02:44:22;;;;;;;6.22;4.22;;;;;;;11.77;100.00;98843.13;4108664;28;20240;-50
2022/10/08 02:46:27;;;;;;;4.32;3.90;;;;;;;11.78;100.00;98834.63;4124475;28;20290;-50
2022/10/08 02:48:30;;;;;;;6.13;4.32;;;;;;;11.77;100.00;98843.94;4109898;28;20194;-50
2022/10/08 02:50:33;;;;;;;4.07;3.78;;;;;;;11.77;100.00;98843.94;4126310;28;20297;-50
2022/10/08 02:52:38;;;;;;;5.68;4.57;;;;;;;11.72;100.00;98843.84;4122712;28;20898;-50
2022/10/08 02:54:41;;;;;;;5.38;4.78;;;;;;;11.72;100.00;98851.25;4123329;28;20226;-50
2022/10/08 02:56:56;;;;;;;7.07;4.40;;;;;;;11.72;100.00;98846.56;4120334;28;20309;-50
2022/10/08 02:58:57;;;;;;;5.35;4.40;;;;;;;11.69;100.00;98852.56;4110449;28;20203;-50
2022/10/08 03:01:03;;;;;;;13.65;5.82;;;;;;;11.82;100.00;98846.75;4122640;28;20225;-50
2022/10/08 03:03:19;;;;;;;4.35;3.95;;;;;;;11.66;100.00;98853.09;4107753;28;20201;-50
2022/10/08 03:05:21;;;;;;;4.55;3.63;;;;;;;11.64;100.00;98855.22;4123572;28;20217;-49
2022/10/08 03:07:25;;;;;;;5.35;4.85;;;;;;;11.60;100.00;98856.81;4125130;28;20233;-50
2022/10/08 03:09:31;;;;;;;4.97;3.92;;;;;;;11.61;100.00;98865.84;4107510;28;20210;-50
2022/10/08 03:11:33;;;;;;;5.93;3.60;;;;;;;11.66;100.00;98858.56;4121740;28;20634;-51
2022/10/08 03:13:38;;;;;;;5.55;4.00;;;;;;;11.58;100.00;98861.69;4105789;28;20593;-50
2022/10/08 03:15:40;;;;;;;4.40;3.78;;;;;;;11.61;100.00;98871.34;4124649;28;20257;-50
2022/10/08 03:17:45;;;;;;;4.78;3.75;;;;;;;11.53;100.00;98869.81;4089207;28;20255;-50
2022/10/08 03:19:46;;;;;;;7.35;6.65;;;;;;;11.52;100.00;98857.16;4104384;28;20282;-49
2022/10/08 03:21:49;;;;;;;4.90;4.05;;;;;;;11.53;100.00;98858.84;4123714;28;20262;-49
2022/10/08 03:23:51;;;;;;;4.97;4.30;;;;;;;11.47;100.00;98859.84;4106476;28;20271;-50
2022/10/08 03:25:55;;;;;;;5.40;3.92;;;;;;;11.53;100.00;98867.09;4108996;28;20310;-50
2022/10/08 03:27:57;;;;;;;6.35;4.15;;;;;;;11.41;100.00;98866.31;4112041;28;20674;-50
2022/10/08 03:29:58;;;;;;;6.35;4.22;;;;;;;11.39;100.00;98876.69;4123363;28;20221;-50
2022/10/08 03:32:00;;;;;;;4.85;4.32;;;;;;;11.40;100.00;98872.88;4123481;28;20296;-49
2022/10/08 03:34:02;;;;;;;4.75;4.32;;;;;;;11.35;100.00;98872.78;4109940;28;20234;-50
2022/10/08 03:36:05;;;;;;;5.13;4.32;;;;;;;11.31;100.00;98871.59;4106443;28;20752;-50
2022/10/08 03:38:07;;;;;;;7.32;4.00;;;;;;;11.29;100.00;98884.72;4121357;28;20301;-49
2022/10/08 03:40:09;;;;;;;6.28;5.05;;;;;;;11.28;100.00;98883.06;4122841;28;20211;-50
2022/10/08 03:42:11;;;;;;;10.68;4.78;;;;;;;11.22;100.00;98878.56;4125359;28;20621;-49
2022/10/08 03:44:13;;;;;;;4.32;3.92;;;;;;;11.18;100.00;98874.63;4123184;28;20223;-48
2022/10/08 03:46:15;;;;;;;7.43;4.95;;;;;;;11.17;100.00;98867.50;4121587;28;20683;-49
2022/10/08 03:48:17;;;;;;;6.15;4.63;;;;;;;11.13;100.00;98874.56;4124498;28;20274;-49
2022/10/08 03:50:20;;;;;;;7.40;4.53;;;;;;;11.11;100.00;98882.16;4123636;28;20304;-50
2022/10/08 03:52:21;;;;;;;4.60;4.07;;;;;;;11.10;100.00;98885.97;4104967;28;20207;-49
2022/10/08 03:54:23;;;;;;;5.95;4.38;;;;;;;11.08;100.00;98879.94;4105939;28;20222;-50
2022/10/08 03:56:25;;;;;;;6.18;4.55;;;;;;;11.09;100.00;98883.47;4106125;28;20691;-49
2022/10/08 03:58:27;;;;;;;4.50;4.10;;;;;;;11.01;100.00;98890.19;4123324;28;20221;-50
2022/10/08 04:00:28;;;;;;;4.75;4.38;;;;;;;10.98;100.00;98881.63;4121223;28;20210;-49
2022/10/08 04:02:31;;;;;;;4.80;4.40;;;;;;;10.91;100.00;98884.50;4107335;28;20217;-49
2022/10/08 04:04:33;;;;;;;7.15;4.90;;;;;;;11.04;100.00;98881.47;4119993;28;20230;-49
2022/10/08 04:06:34;;;;;;;5.43;4.63;;;;;;;10.88;100.00;98893.22;4122869;28;20213;-51
2022/10/08 04:08:37;;;;;;;4.40;4.10;;;;;;;10.90;100.00;98891.06;4122153;28;20206;-50
2022/10/08 04:10:38;;;;;;;4.65;4.15;;;;;;;10.88;100.00;98898.69;4122519;28;20756;-49
2022/10/08 04:12:40;;;;;;;11.48;4.38;;;;;;;10.77;100.00;98895.16;4121456;28;20293;-50
2022/10/08 04:14:42;;;;;;;6.28;3.88;;;;;;;10.75;100.00;98900.03;4123222;28;20372;-51
2022/10/08 04:16:44;;;;;;;4.50;4.00;;;;;;;10.75;100.00;98897.31;4111297;28;20301;-52
2022/10/08 04:18:46;;;;;;;7.97;4.43;;;;;;;10.76;100.00;98904.44;4119860;28;20309;-50
2022/10/08 04:20:47;;;;;;;4.95;4.15;;;;;;;10.68;100.00;98899.34;4122467;28;20306;-51
2022/10/08 04:22:49;;;;;;;9.52;4.60;;;;;;;10.72;100.00;98898.63;4106961;28;20316;-51
2022/10/08 04:24:51;;;;;;;4.60;4.20;;;;;;;10.60;100.00;98896.97;4107358;28;20936;-51
2022/10/08 04:26:53;;;;;;;4.50;3.83;;;;;;;10.60;100.00;98899.69;4123777;28;20246;-50
2022/10/08 04:28:54;;;;;;;5.03;4.57;;;;;;;10.61;100.00;98901.38;4121516;28;20215;-50
2022/10/08 04:31:01;;;;;;;6.07;3.95;;;;;;;10.75;100.00;98900.03;4121095;28;20210;-50
2022/10/08 04:33:03;;;;;;;3.80;3.50;;;;;;;10.64;100.00;98900.88;4109914;28;21215;-51
2022/10/08 04:35:05;;;;;;;10.27;4.05;;;;;;;10.70;100.00;98905.41;4120261;28;20210;-50
2022/10/08 04:37:07;;;;;;;14.40;3.55;;;;;;;10.68;100.00;98900.16;4122529;28;20254;-50
2022/10/08 04:39:09;;;;;;;3.25;2.92;;;;;;;10.62;100.00;98894.84;4122885;28;20221;-51
2022/10/08 04:41:13;;;;;;;3.83;3.28;;;;;;;10.57;100.00;98898.28;4106011;28;20626;-51
2022/10/08 04:43:14;;;;;;;6.20;4.47;;;;;;;10.62;100.00;98903.03;4123320;28;20203;-51
2022/10/08 04:45:16;;;;;;;8.70;5.07;;;;;;;10.70;100.00;98899.94;4109719;28;20202;-51
2022/10/08 04:47:18;;;;;;;4.35;3.30;;;;;;;10.56;100.00;98901.28;4120434;28;20206;-50
2022/10/08 04:49:19;;;;;;;4.93;4.43;;;;;;;10.57;100.00;98911.13;4124490;28;20356;-51
2022/10/08 04:51:23;;;;;;;5.82;4.43;;;;;;;10.61;100.00;98904.13;4121197;28;20244;-51
2022/10/08 04:53:25;;;;;;;7.03;3.38;;;;;;;10.52;100.00;98908.28;4120249;28;20264;-52
2022/10/08 04:55:27;;;;;;;7.30;4.43;;;;;;;10.48;100.00;98918.88;4120316;28;20328;-51
2022/10/08 04:57:30;;;;;;;4.93;4.35;;;;;;;10.48;100.00;98918.06;4121722;28;20208;-51
2022/10/08 04:59:32;;;;;;;6.95;4.90;;;;;;;10.46;100.00;98917.44;4109800;28;20242;-51
2022/10/08 05:01:33;;;;;;;7.43;5.43;;;;;;;10.45;100.00;98919.38;4122241;28;20230;-50
2022/10/08 05:03:37;;;;;;;9.52;4.68;;;;;;;10.48;100.00;98918.06;4123544;28;20222;-51
2022/10/08 05:05:43;;;;;;;4.45;3.85;;;;;;;10.41;100.00;98922.81;4120530;28;20259;-50
2022/10/08 05:07:45;;;;;;;5.80;4.45;;;;;;;10.34;100.00;98922.13;4107868;28;20249;-51
2022/10/08 05:09:47;;;;;;;4.72;4.35;;;;;;;10.31;100.00;98922.56;4105661;28;20342;-51
2022/10/08 05:11:50;;;;;;;5.15;3.72;;;;;;;10.29;100.00;98935.66;4105272;28;20199;-51
2022/10/08 05:13:53;;;;;;;4.45;4.03;;;;;;;10.28;100.00;98923.06;4121269;28;20265;-50
2022/10/08 05:15:54;;;;;;;4.60;3.47;;;;;;;10.30;100.00;98927.22;4122438;28;20224;-51
2022/10/08 05:17:56;;;;;;;4.20;3.33;;;;;;;10.31;100.00;98936.25;4109149;28;20238;-51
2022/10/08 05:19:58;;;;;;;3.55;3.25;;;;;;;10.29;100.00;98930.19;4106277;28;20211;-50
2022/10/08 05:22:00;;;;;;;8.10;6.25;;;;;;;10.23;100.00;98933.88;4122147;28;20316;-50
2022/10/08 05:24:05;;;;;;;3.53;3.08;;;;;;;10.20;100.00;98926.13;4121547;28;20233;-50
2022/10/08 05:26:14;;;;;;;8.73;3.45;;;;;;;10.23;100.00;98934.72;4124042;28;20257;-50
2022/10/08 05:28:16;;;;;;;4.03;3.45;;;;;;;10.15;100.00;98934.25;4121693;28;20221;-51
2022/10/08 05:30:17;;;;;;;5.75;3.58;;;;;;;10.10;100.00;98942.31;4122782;28;20220;-51
2022/10/08 05:32:22;;;;;;;10.93;3.67;;;;;;;10.17;100.00;98943.88;4120829;28;20197;-50
2022/10/08 05:34:24;;;;;;;4.90;4.18;;;;;;;10.10;100.00;98936.84;4119161;28;20251;-51
2022/10/08 05:36:28;;;;;;;4.25;3.95;;;;;;;10.08;100.00;98942.53;4122059;28;20296;-50
2022/10/08 05:38:30;;;;;;;5.78;4.10;;;;;;;10.09;100.00;98951.59;4122382;28;20683;-51
2022/10/08 05:40:35;;;;;;;6.07;3.60;;;;;;;10.04;100.00;98948.72;4122270;28;20234;-50
2022/10/08 05:42:37;;;;;;;4.13;3.83;;;;;;;9.99;100.00;98946.66;4122064;28;20640;-51
2022/10/08 05:44:39;;;;;;;6.65;4.18;;;;;;;9.94;100.00;98943.81;4123796;28;20349;-50
2022/10/08 05:46:45;;;;;;;4.95;3.85;;;;;;;9.90;100.00;98947.25;4109726;28;20207;-51
2022/10/08 05:48:52;;;;;;;6.53;3.65;;;;;;;9.90;100.00;98952.72;4126404;28;20209;-52
2022/10/08 05:50:53;;;;;;;5.47;3.85;;;;;;;9.90;100.00;98960.91;4122844;28;20203;-50
2022/10/08 05:52:55;;;;;;;6.18;3.50;;;;;;;9.91;100.00;98954.38;4123168;28;20198;-50
2022/10/08 05:54:57;;;;;;;5.32;4.10;;;;;;;9.98;100.00;98960.56;4125150;28;20221;-50
2022/10/08 05:56:58;;;;;;;5.40;3.88;;;;;;;9.95;100.00;98950.13;4093863;28;20306;-50
2022/10/08 05:59:00;;;;;;;7.18;3.80;;;;;;;9.95;100.00;98956.41;4128021;28;20296;-50
2022/10/08 06:01:07;;;;;;;3.70;3.40;;;;;;;9.91;100.00;98959.84;4126274;28;20724;-50
2022/10/08 06:03:09;;;;;;;3.90;3.22;;;;;;;9.93;100.00;98971.38;4129626;28;20223;-51
2022/10/08 06:05:11;;;;;;;4.78;3.70;;;;;;;9.95;100.00;98974.72;4108329;28;20211;-51
2022/10/08 06:07:16;;;;;;;9.00;4.00;;;;;;;10.00;100.00;98981.13;4124865;28;20209;-50
2022/10/08 06:09:19;;;;;;;4.90;3.95;;;;;;;9.99;100.00;98981.38;4122431;28;20301;-51
2022/10/08 06:11:21;;;;;;;5.68;4.00;;;;;;;10.17;100.00;98978.59;4124200;28;20233;-50
2022/10/08 06:13:22;;;;;;;4.57;4.18;;;;;;;10.10;100.00;98981.44;4125040;28;20313;-51
2022/10/08 06:15:24;;;;;;;6.85;4.30;;;;;;;10.06;100.00;98979.38;4123467;28;20309;-51
2022/10/08 06:17:26;;;;;;;3.63;3.20;;;;;;;10.14;100.00;98981.81;4125964;28;20257;-52
2022/10/08 06:19:28;;;;;;;9.32;3.67;;;;;;;10.26;100.00;98985.34;4125424;28;20332;-51
2022/10/08 06:21:30;;;;;;;12.32;4.72;;;;;;;10.07;100.00;98986.53;4128513;28;20214;-51
2022/10/08 06:23:32;;;;;;;5.85;4.03;;;;;;;10.11;100.00;98987.72;4109635;28;20828;-51
2022/10/08 06:25:37;;;;;;;4.78;4.25;;;;;;;10.18;100.00;98988.44;4124478;28;20304;-51
2022/10/08 06:27:39;;;;;;;8.48;5.82;;;;;;;10.27;100.00;98992.53;4126963;28;20952;-51
2022/10/08 06:29:40;;;;;;;7.18;6.18;;;;;;;10.34;100.00;98994.06;4124345;28;20216;-50
2022/10/08 06:31:43;;;;;;;6.93;4.75;;;;;;;10.22;100.00;99000.59;4121807;28;20289;-51
2022/10/08 06:33:47;;;;;;;5.07;4.68;;;;;;;10.27;100.00;98992.53;4121698;28;20233;-51
2022/10/08 06:35:49;;;;;;;14.23;5.45;;;;;;;10.39;100.00;99001.53;4123247;28;20335;-51
2022/10/08 06:37:51;;;;;;;6.13;4.28;;;;;;;10.41;100.00;98999.44;4124840;28;20210;-50
2022/10/08 06:39:52;;;;;;;8.05;4.55;;;;;;;10.55;100.00;99003.59;4109678;28;20310;-51
2022/10/08 06:41:54;;;;;;;6.07;4.85;;;;;;;10.52;100.00;99001.31;4123446;28;20316;-51
2022/10/08 06:43:56;;;;;;;6.88;5.35;;;;;;;10.52;100.00;99002.16;4121223;28;20234;-51
2022/10/08 06:45:59;;;;;;;5.82;5.32;;;;;;;10.57;100.00;99005.03;4120477;28;20304;-50
2022/10/08 06:48:00;;;;;;;7.28;5.15;;;;;;;10.69;100.00;99002.28;4109023;28;20202;-50
2022/10/08 06:50:02;;;;;;;6.68;5.97;;;;;;;10.51;100.00;99005.97;4121348;28;20203;-51
2022/10/08 06:52:04;;;;;;;20.58;5.05;;;;;;;10.53;100.00;99002.97;4120724;28;20328;-51
2022/10/08 06:54:06;;;;;;;14.57;5.57;;;;;;;10.54;100.00;99010.13;4118758;28;20655;-50
2022/10/08 06:56:13;;;;;;;8.30;6.70;;;;;;;10.54;100.00;99010.94;4107451;28;20215;-51
2022/10/08 06:58:15;;;;;;;6.80;6.18;;;;;;;10.64;100.00;99013.09;4122511;28;20214;-50
2022/10/08 07:00:17;;;;;;;6.20;5.70;;;;;;;10.71;100.00;99019.28;4091911;28;20669;-51
2022/10/08 07:02:20;;;;;;;16.20;6.47;;;;;;;10.77;100.00;99016.44;4121105;28;20325;-50
2022/10/08 07:04:21;;;;;;;6.10;5.18;;;;;;;10.87;100.00;99016.66;4118916;28;20238;-51
2022/10/08 07:06:24;;;;;;;9.55;6.15;;;;;;;10.94;100.00;99017.34;4120826;28;20210;-51
2022/10/08 07:08:27;;;;;;;6.47;5.88;;;;;;;10.97;100.00;99023.19;4120620;28;20257;-50
2022/10/08 07:10:29;;;;;;;10.15;5.75;;;;;;;10.97;100.00;99027.84;4105358;28;20223;-51
2022/10/08 07:12:34;;;;;;;8.00;7.18;;;;;;;11.32;100.00;99026.69;4120145;28;20304;-50
2022/10/08 07:14:36;;;;;;;8.45;7.22;;;;;;;11.83;100.00;99032.13;4107325;28;20247;-50
2022/10/08 07:16:38;;;;;;;7.88;6.20;;;;;;;12.70;100.00;99033.38;4106919;28;20641;-51
2022/10/08 07:18:40;;;;;;;9.65;5.93;;;;;;;13.12;100.00;99034.59;4106139;28;20211;-52
2022/10/08 07:20:42;;;;;;;12.45;8.57;;;;;;;13.22;100.00;99046.56;4121077;28;20221;-51
2022/10/08 07:22:43;;;;;;;9.60;6.82;;;;;;;13.64;100.00;99033.09;4105593;28;20243;-51
2022/10/08 07:24:46;;;;;;;8.05;5.95;;;;;;;13.94;95.38;99045.25;4106759;28;20243;-51
2022/10/08 07:26:47;;;;;;;12.90;5.70;;;;;;;13.76;97.08;99040.09;4086230;28;20586;-52
2022/10/08 07:28:52;;;;;;;8.75;6.07;;;;;;;13.63;97.54;99046.00;4106282;28;20306;-49
2022/10/08 07:30:53;;;;;;;10.43;5.85;;;;;;;13.67;97.18;99049.06;4123270;28;20770;-50
2022/10/08 07:32:55;;;;;;;6.05;5.45;;;;;;;13.74;97.96;99049.69;4101925;28;20207;-50
2022/10/08 07:34:57;;;;;;;6.68;5.28;;;;;;;13.66;96.69;99047.41;4115669;28;20203;-50
2022/10/08 07:37:01;;;;;;;6.53;5.90;;;;;;;13.41;98.37;99056.16;4115563;28;20690;-50
2022/10/08 07:39:09;;;;;;;14.48;5.85;;;;;;;14.58;96.68;99051.69;4117892;28;20731;-51
2022/10/08 07:41:12;;;;;;;6.90;5.22;;;;;;;14.97;90.98;99051.16;4100993;28;20218;-50
2022/10/08 07:43:13;;;;;;;14.73;5.68;;;;;;;15.44;90.15;99057.56;4119292;28;20226;-50
2022/10/08 07:45:20;;;;;;;7.80;5.22;;;;;;;15.66;90.00;99063.75;4102271;28;20253;-50
2022/10/08 07:47:21;;;;;;;8.23;5.90;;;;;;;15.53;89.17;99060.63;4103511;28;20234;-50
2022/10/08 07:49:23;;;;;;;21.75;7.30;;;;;;;16.19;88.30;99066.13;4104828;28;20258;-50
2022/10/08 07:51:25;;;;;;;34.88;5.93;;;;;;;16.48;84.55;99059.03;4114970;28;20212;-50
2022/10/08 07:53:27;;;;;;;5.35;4.38;;;;;;;17.30;85.47;99056.75;4119052;28;20229;-50
2022/10/08 07:55:29;;;;;;;11.73;4.25;;;;;;;16.60;82.45;99059.59;4117382;28;20224;-51
2022/10/08 07:57:30;;;;;;;7.50;4.35;;;;;;;17.04;82.47;99061.50;4117444;28;22654;-51
2022/10/08 07:59:32;;;;;;;7.80;4.78;;;;;;;17.43;81.84;99062.59;4116142;28;20206;-50
2022/10/08 08:01:34;;;;;;;5.70;4.63;;;;;;;17.41;80.05;99069.50;4103672;28;20195;-50
2022/10/08 08:03:36;;;;;;;5.38;4.22;;;;;;;17.65;78.56;99065.00;4120168;28;20238;-51
2022/10/08 08:05:38;;;;;;;7.22;3.95;;;;;;;17.64;77.28;99066.13;4103979;28;20206;-51
2022/10/08 08:07:39;;;;;;;9.05;4.93;;;;;;;17.17;77.16;99080.31;4122045;28;20216;-50
2022/10/08 08:09:41;;;;;;;9.35;3.67;;;;;;;17.07;78.86;99079.50;4104191;28;20209;-50
2022/10/08 08:11:44;;;;;;;6.00;3.75;;;;;;;18.04;78.79;99071.50;4119662;28;20261;-50
2022/10/08 08:13:46;;;;;;;5.63;3.33;;;;;;;18.30;75.89;99072.97;4115784;28;20233;-51
2022/10/08 08:15:58;;;;;;;7.05;4.22;;;;;;;18.45;77.78;99078.50;4120102;28;20207;-48
2022/10/08 08:18:00;;;;;;;4.97;3.33;;;;;;;17.83;77.11;99079.06;4117362;28;20234;-51
2022/10/08 08:20:02;;;;;;;3.95;3.03;;;;;;;17.44;79.52;99085.56;4102761;28;20214;-50
2022/10/08 08:22:06;;;;;;;6.85;3.60;;;;;;;17.16;79.76;99083.34;4102186;28;20314;-50
2022/10/08 08:24:10;;;;;;;4.85;3.40;;;;;;;16.77;80.55;99085.00;4118898;28;20317;-47
2022/10/08 08:26:33;;;;;;;5.57;3.13;;;;;;;15.92;82.47;99087.59;4119008;28;20215;-49
2022/10/08 08:28:34;;;;;;;7.90;2.95;;;;;;;15.76;83.53;99099.66;4121056;28;20216;-51
2022/10/08 08:30:36;;;;;;;11.38;3.33;;;;;;;15.46;84.17;99085.72;4104370;28;20328;-51
2022/10/08 08:32:38;;;;;;;11.65;3.65;;;;;;;16.00;83.72;99100.03;4121541;28;20210;-52
2022/10/08 08:34:40;;;;;;;5.65;2.53;;;;;;;16.05;84.17;99092.59;4121794;28;20352;-53
2022/10/08 08:36:43;;;;;;;7.75;2.95;;;;;;;16.76;82.06;99093.59;4104265;28;20298;-51
2022/10/08 08:38:46;;;;;;;6.18;3.17;;;;;;;17.49;79.56;99093.81;4104435;28;20250;-52
2022/10/08 08:40:48;;;;;;;5.15;3.85;;;;;;;17.50;79.05;99092.72;4105492;28;20238;-50
2022/10/08 08:42:53;;;;;;;6.38;2.45;;;;;;;17.96;78.28;99094.22;4107005;28;20236;-50
2022/10/08 08:45:00;;;;;;;10.98;2.55;;;;;;;18.33;76.75;99100.19;4107198;28;20239;-51
2022/10/08 08:47:20;;;;;;;9.07;2.88;;;;;;;18.30;76.13;99101.56;4120506;28;20231;-51
2022/10/08 08:49:40;;;;;;;5.32;2.00;;;;;;;17.99;75.03;99099.22;4125011;28;20296;-50
2022/10/08 08:51:42;;;;;;;7.57;2.55;;;;;;;17.50;75.08;99101.00;4120855;28;20309;-51
2022/10/08 08:53:44;;;;;;;10.40;2.08;;;;;;;17.13;76.15;99100.50;4121683;28;20225;-52
2022/10/08 08:55:48;;;;;;;4.45;2.33;;;;;;;17.09;77.88;99110.47;4119744;28;20289;-52
2022/10/08 08:58:03;;;;;;;9.27;2.40;;;;;;;16.84;78.76;99118.75;4111551;28;20302;-50
2022/10/08 09:00:13;;;;;;;6.97;2.20;;;;;;;16.40;80.42;99117.59;4119978;28;20213;-52
2022/10/08 09:02:21;;;;;;;6.00;2.40;;;;;;;16.25;79.45;99120.28;4107094;28;20221;-50
2022/10/08 09:04:38;;;;;;;4.40;2.05;;;;;;;15.76;81.64;99121.72;4118836;28;20691;-53
2022/10/08 09:06:47;;;;;;;4.53;2.10;;;;;;;15.59;81.85;99126.63;4115338;28;20734;-50
2022/10/08 09:08:53;;;;;;;5.30;2.28;;;;;;;15.58;82.69;99130.50;4119321;28;20206;-52
2022/10/08 09:10:55;;;;;;;4.03;1.80;;;;;;;15.33;83.71;99122.03;4106099;28;20198;-51
2022/10/08 09:12:57;;;;;;;8.38;2.88;;;;;;;15.32;83.97;99125.91;4105650;28;20231;-51
2022/10/08 09:15:00;;;;;;;10.43;2.22;;;;;;;15.29;84.48;99126.38;4123139;28;20211;-51
2022/10/08 09:17:17;;;;;;;7.53;2.35;;;;;;;15.35;84.83;99122.59;4107210;28;20290;-50
2022/10/08 09:19:19;;;;;;;5.88;2.05;;;;;;;15.37;84.70;99131.44;4121179;28;20850;-50
2022/10/08 09:21:22;;;;;;;3.40;1.70;;;;;;;15.60;84.24;99133.81;4123401;28;21139;-50
2022/10/08 09:23:25;;;;;;;4.88;2.30;;;;;;;15.30;84.45;99128.03;4104521;28;20231;-50
2022/10/08 09:25:31;;;;;;;3.88;1.98;;;;;;;15.28;84.92;99130.25;4120425;28;20228;-51
2022/10/08 09:27:53;;;;;;;10.95;2.55;;;;;;;15.44;85.15;99137.53;4120969;28;20257;-50
2022/10/08 09:29:55;;;;;;;8.18;2.45;;;;;;;15.45;84.37;99136.47;4105207;28;20794;-51
2022/10/08 09:31:57;;;;;;;5.10;2.03;;;;;;;15.15;84.85;99125.19;4106051;28;20246;-53
2022/10/08 09:34:03;;;;;;;3.30;1.95;;;;;;;15.05;84.47;99129.78;4088574;28;20255;-50
2022/10/08 09:36:05;;;;;;;10.00;1.92;;;;;;;15.05;85.46;99129.78;4106536;28;20231;-50
2022/10/08 09:38:35;;;;;;;8.77;2.42;;;;;;;15.83;85.35;99133.34;4124046;28;20201;-48
2022/10/08 09:40:36;;;;;;;6.50;2.05;;;;;;;16.14;81.70;99129.63;4117588;28;20226;-50
2022/10/08 09:42:39;;;;;;;5.63;1.83;;;;;;;16.68;80.13;99133.66;4120347;28;20357;-49